Time;durP1;ratioP1;P1;durP2;ratioP2;P2;SDS_P1;SDS_P2;PMS_P1;PMS_P2;Temp;Humidity;BMP_temperature;BMP_pressure;BME280_temperature;BME280_humidity;BME280_pressure;Samples;Min_cycle;Max_cycle;Signal;HPM_P1;HPM_P2
2022/04/11 00:01:02;;;;;;;4.03;3.53;;;;;;;;;;4940526;28;22634;-53
2022/04/11 00:03:29;;;;;;;6.03;4.27;;;;;;;;;;4916214;28;20451;-51
2022/04/11 00:05:55;;;;;;;9.03;3.93;;;;;;;;;;4941142;28;20462;-51
2022/04/11 00:08:21;;;;;;;3.70;3.40;;;;;;;;;;4918609;28;20520;-52
2022/04/11 00:10:48;;;;;;;7.23;4.10;;;;;;;;;;4927319;28;20473;-53
2022/04/11 00:13:13;;;;;;;6.83;3.77;;;;;;;;;;4902562;28;24381;-52
2022/04/11 00:15:42;;;;;;;5.70;3.83;;;;;;;;;;4920328;28;24780;-52
2022/04/11 00:18:08;;;;;;;7.27;4.57;;;;;;;;;;4930224;28;20534;-51
2022/04/11 00:20:35;;;;;;;6.87;4.37;;;;;;;;;;4937830;28;20435;-52
2022/04/11 00:23:01;;;;;;;4.03;3.30;;;;;;;;;;4920980;28;20451;-53
2022/04/11 00:25:26;;;;;;;5.40;3.30;;;;;;;;;;4937853;28;21148;-53
2022/04/11 00:27:58;;;;;;;4.80;4.30;;;;;;;;;;4924027;28;20484;-53
2022/04/11 00:30:24;;;;;;;6.37;4.23;;;;;;;;;;4938127;28;20439;-51
2022/04/11 00:32:59;;;;;;;5.27;3.80;;;;;;;;;;4917881;28;20423;-52
2022/04/11 00:35:26;;;;;;;4.73;3.97;;;;;;;;;;4936794;28;20473;-53
2022/04/11 00:37:53;;;;;;;8.10;4.00;;;;;;;;;;4915086;28;20443;-53
2022/04/11 00:40:19;;;;;;;4.90;3.80;;;;;;;;;;4908011;28;21273;-52
2022/04/11 00:42:48;;;;;;;5.07;4.40;;;;;;;;;;4938306;28;20439;-52
2022/04/11 00:45:20;;;;;;;6.50;3.90;;;;;;;;;;4927182;28;22157;-52
2022/04/11 00:47:47;;;;;;;4.90;4.40;;;;;;;;;;4941591;28;20450;-52
2022/04/11 00:50:33;;;;;;;4.33;3.90;;;;;;;;;;4934906;28;20440;-53
2022/04/11 00:52:59;;;;;;;5.80;4.23;;;;;;;;;;4938872;28;21426;-52
2022/04/11 00:55:25;;;;;;;7.53;4.50;;;;;;;;;;4935849;28;20427;-52
2022/04/11 00:57:51;;;;;;;5.50;3.33;;;;;;;;;;4937854;28;20463;-53
2022/04/11 01:00:34;;;;;;;12.03;3.90;;;;;;;;;;4952322;28;21012;-54
2022/04/11 01:03:00;;;;;;;6.67;3.50;;;;;;;;;;4938790;28;20509;-52
2022/04/11 01:05:26;;;;;;;5.33;4.83;;;;;;;;;;4932317;28;22649;-52
2022/04/11 01:07:52;;;;;;;5.13;4.63;;;;;;;;;;4939043;28;20435;-53
2022/04/11 01:10:20;;;;;;;5.50;4.60;;;;;;;;;;4918370;28;20566;-52
2022/04/11 01:12:47;;;;;;;4.60;4.20;;;;;;;;;;4935790;28;20462;-53
2022/04/11 01:15:24;;;;;;;7.00;3.43;;;;;;;;;;4921817;28;20819;-51
2022/04/11 01:17:50;;;;;;;6.27;4.57;;;;;;;;;;4938863;28;20485;-52
2022/04/11 01:20:16;;;;;;;6.63;4.53;;;;;;;;;;4938540;28;20442;-54
2022/04/11 01:22:42;;;;;;;3.77;3.40;;;;;;;;;;4938186;28;20909;-53
2022/04/11 01:25:09;;;;;;;11.07;5.20;;;;;;;;;;4935135;28;21040;-52
2022/04/11 01:27:34;;;;;;;6.90;4.67;;;;;;;;;;4942129;28;20558;-53
2022/04/11 01:30:00;;;;;;;7.13;5.07;;;;;;;;;;4915305;28;20475;-51
2022/04/11 01:32:28;;;;;;;5.80;4.53;;;;;;;;;;4936753;28;20470;-52
2022/04/11 01:35:00;;;;;;;4.40;3.80;;;;;;;;;;4932014;28;20505;-52
2022/04/11 01:37:27;;;;;;;7.30;4.90;;;;;;;;;;4935008;28;20600;-55
2022/04/11 01:39:53;;;;;;;6.20;4.13;;;;;;;;;;4937515;28;20444;-53
2022/04/11 01:42:19;;;;;;;4.63;4.23;;;;;;;;;;4912021;28;20462;-53
2022/04/11 01:44:45;;;;;;;8.03;4.43;;;;;;;;;;4941451;28;20484;-54
2022/04/11 01:47:11;;;;;;;7.43;4.43;;;;;;;;;;4926854;28;20451;-52
2022/04/11 01:49:37;;;;;;;6.73;4.80;;;;;;;;;;4936865;28;20606;-52
2022/04/11 01:52:03;;;;;;;6.73;5.70;;;;;;;;;;4925585;28;20442;-53
2022/04/11 01:54:30;;;;;;;10.03;5.23;;;;;;;;;;4937746;28;20463;-53
2022/04/11 01:56:57;;;;;;;5.07;4.63;;;;;;;;;;4945582;28;20451;-53
2022/04/11 01:59:23;;;;;;;6.50;3.93;;;;;;;;;;4930801;28;20981;-53
2022/04/11 02:01:49;;;;;;;5.83;4.90;;;;;;;;;;4933604;28;20453;-53
2022/04/11 02:04:15;;;;;;;7.90;6.80;;;;;;;;;;4912247;28;20480;-52
2022/04/11 02:06:41;;;;;;;11.63;5.77;;;;;;;;;;4941907;28;20450;-52
2022/04/11 02:09:07;;;;;;;8.03;5.17;;;;;;;;;;4900469;28;20619;-55
2022/04/11 02:11:33;;;;;;;7.03;6.03;;;;;;;;;;4918788;28;20446;-52
2022/04/11 02:14:07;;;;;;;6.43;5.33;;;;;;;;;;4912758;28;22853;-52
2022/04/11 02:16:33;;;;;;;6.87;5.67;;;;;;;;;;4920547;28;20871;-53
2022/04/11 02:18:59;;;;;;;8.10;5.10;;;;;;;;;;4905878;28;20465;-52
2022/04/11 02:21:25;;;;;;;6.67;5.17;;;;;;;;;;4915910;28;20448;-52
2022/04/11 02:24:01;;;;;;;7.13;6.40;;;;;;;;;;4920769;28;20622;-52
2022/04/11 02:26:27;;;;;;;6.10;5.50;;;;;;;;;;4933835;28;20423;-52
2022/04/11 02:31:56;;;;;;;6.77;5.57;;;;;;;;;;4927561;28;20441;-51
2022/04/11 02:34:25;;;;;;;7.30;5.97;;;;;;;;;;4916974;28;20444;-52
2022/04/11 02:36:51;;;;;;;10.70;5.87;;;;;;;;;;4936013;28;20448;-53
2022/04/11 02:39:20;;;;;;;6.97;5.40;;;;;;;;;;4922181;28;20535;-54
2022/04/11 02:41:46;;;;;;;6.73;5.50;;;;;;;;;;4931222;28;20192;-51
2022/04/11 02:44:12;;;;;;;8.63;5.23;;;;;;;;;;4935935;28;20501;-52
2022/04/11 02:46:38;;;;;;;6.40;5.43;;;;;;;;;;4954365;28;20442;-52
2022/04/11 02:49:04;;;;;;;4.93;4.53;;;;;;;;;;4924082;28;20557;-51
2022/04/11 02:51:30;;;;;;;6.50;5.80;;;;;;;;;;4939878;28;20446;-53
2022/04/11 02:54:07;;;;;;;6.77;5.20;;;;;;;;;;4924241;28;20535;-55
2022/04/11 02:56:34;;;;;;;7.87;5.27;;;;;;;;;;4943561;28;20458;-52
2022/04/11 02:59:02;;;;;;;9.27;5.70;;;;;;;;;;4933347;28;20526;-52
2022/04/11 03:01:28;;;;;;;9.80;5.37;;;;;;;;;;4934092;28;20471;-52
2022/04/11 03:04:07;;;;;;;8.07;6.10;;;;;;;;;;4930195;28;20467;-52
2022/04/11 03:06:33;;;;;;;6.37;5.77;;;;;;;;;;4937071;28;20495;-53
2022/04/11 03:09:11;;;;;;;8.10;5.20;;;;;;;;;;4935414;28;20472;-53
2022/04/11 03:11:37;;;;;;;6.97;6.27;;;;;;;;;;4930219;28;20510;-53
2022/04/11 03:14:04;;;;;;;6.50;5.77;;;;;;;;;;4929872;28;20844;-52
2022/04/11 03:16:32;;;;;;;8.47;6.40;;;;;;;;;;4921049;28;20463;-55
2022/04/11 03:18:58;;;;;;;11.30;6.30;;;;;;;;;;4939820;28;20961;-52
2022/04/11 03:21:25;;;;;;;7.63;6.83;;;;;;;;;;4923522;28;20451;-53
2022/04/11 03:23:51;;;;;;;10.03;8.27;;;;;;;;;;4940650;28;20683;-53
2022/04/11 03:26:17;;;;;;;12.50;9.00;;;;;;;;;;4918525;28;20443;-53
2022/04/11 03:28:43;;;;;;;11.77;8.67;;;;;;;;;;4940844;28;20434;-53
2022/04/11 03:31:22;;;;;;;12.23;8.63;;;;;;;;;;4935496;28;20757;-53
2022/04/11 03:33:48;;;;;;;7.13;6.40;;;;;;;;;;4939607;28;20469;-52
2022/04/11 03:36:17;;;;;;;8.60;7.10;;;;;;;;;;4916462;28;20442;-53
2022/04/11 03:38:44;;;;;;;6.97;5.60;;;;;;;;;;4932101;28;20439;-60
2022/04/11 03:41:30;;;;;;;8.63;6.20;;;;;;;;;;4896228;28;20436;-53
2022/04/11 03:44:20;;;;;;;7.57;6.10;;;;;;;;;;4927275;28;20478;-53
2022/04/11 03:46:48;;;;;;;9.93;6.13;;;;;;;;;;4935919;28;20466;-53
2022/04/11 03:49:14;;;;;;;8.37;6.50;;;;;;;;;;4936853;28;20453;-52
2022/04/11 03:51:40;;;;;;;10.30;6.60;;;;;;;;;;4942598;28;20442;-52
2022/04/11 03:54:09;;;;;;;8.43;6.10;;;;;;;;;;4916634;28;20453;-53
2022/04/11 03:56:36;;;;;;;7.90;6.53;;;;;;;;;;4944407;28;20450;-51
2022/04/11 03:59:18;;;;;;;7.53;6.40;;;;;;;;;;4941064;28;20457;-53
2022/04/11 04:01:45;;;;;;;8.50;6.17;;;;;;;;;;4943179;28;20587;-53
2022/04/11 04:04:12;;;;;;;8.20;6.20;;;;;;;;;;4931989;28;20478;-59
2022/04/11 04:06:38;;;;;;;8.67;6.37;;;;;;;;;;4943989;28;20458;-53
2022/04/11 04:09:11;;;;;;;8.03;6.10;;;;;;;;;;4935087;28;20435;-53
2022/04/11 04:11:37;;;;;;;11.13;7.47;;;;;;;;;;4937253;28;20442;-52
2022/04/11 04:14:23;;;;;;;8.20;6.03;;;;;;;;;;4927392;28;20960;-55
2022/04/11 04:16:51;;;;;;;7.33;5.80;;;;;;;;;;4937082;28;20439;-53
2022/04/11 04:19:18;;;;;;;7.00;5.07;;;;;;;;;;4938788;28;20435;-57
2022/04/11 04:21:45;;;;;;;10.60;7.50;;;;;;;;;;4948873;28;20443;-52
2022/04/11 04:24:22;;;;;;;8.20;7.20;;;;;;;;;;4923202;28;20581;-52
2022/04/11 04:26:48;;;;;;;11.47;7.20;;;;;;;;;;4935561;28;20881;-52
2022/04/11 04:29:16;;;;;;;7.83;6.63;;;;;;;;;;4952296;28;20536;-52
2022/04/11 04:31:42;;;;;;;13.60;6.40;;;;;;;;;;4938387;28;20451;-51
2022/04/11 04:34:08;;;;;;;7.37;6.10;;;;;;;;;;4927076;28;20748;-52
2022/04/11 04:36:54;;;;;;;8.20;6.40;;;;;;;;;;4917940;28;20451;-53
2022/04/11 04:39:26;;;;;;;8.30;6.67;;;;;;;;;;4933454;28;20291;-51
2022/04/11 04:42:16;;;;;;;11.00;6.20;;;;;;;;;;4936929;28;20529;-52
2022/04/11 04:44:42;;;;;;;8.53;6.40;;;;;;;;;;4935291;28;20470;-51
2022/04/11 04:47:38;;;;;;;9.13;6.03;;;;;;;;;;4938733;28;20457;-52
2022/04/11 04:50:06;;;;;;;11.33;6.63;;;;;;;;;;4929604;28;20467;-51
2022/04/11 04:52:37;;;;;;;6.70;6.03;;;;;;;;;;4924858;28;20444;-52
2022/04/11 04:55:04;;;;;;;11.50;6.10;;;;;;;;;;4938212;28;20452;-53
2022/04/11 04:57:30;;;;;;;6.93;6.23;;;;;;;;;;4915247;28;20802;-52
2022/04/11 04:59:56;;;;;;;8.23;6.57;;;;;;;;;;4940990;28;20446;-52
2022/04/11 05:02:22;;;;;;;6.73;6.07;;;;;;;;;;4912817;28;20453;-51
2022/04/11 05:04:48;;;;;;;7.80;6.23;;;;;;;;;;4941354;28;20546;-51
2022/04/11 05:07:14;;;;;;;9.90;7.70;;;;;;;;;;4927531;28;20490;-52
2022/04/11 05:09:40;;;;;;;6.93;6.23;;;;;;;;;;4943045;28;20470;-52
2022/04/11 05:12:06;;;;;;;8.30;6.40;;;;;;;;;;4942138;28;20937;-52
2022/04/11 05:14:32;;;;;;;7.53;6.70;;;;;;;;;;4949463;28;20427;-53
2022/04/11 05:16:58;;;;;;;7.77;5.67;;;;;;;;;;4934058;28;20545;-51
2022/04/11 05:19:24;;;;;;;8.40;6.30;;;;;;;;;;4944321;28;20578;-52
2022/04/11 05:21:50;;;;;;;7.70;5.97;;;;;;;;;;4922056;28;20448;-52
2022/04/11 05:24:16;;;;;;;9.30;7.20;;;;;;;;;;4943552;28;20494;-52
2022/04/11 05:26:42;;;;;;;7.63;6.83;;;;;;;;;;4911086;28;20463;-52
2022/04/11 05:29:08;;;;;;;7.60;6.80;;;;;;;;;;4936507;28;20603;-52
2022/04/11 05:31:34;;;;;;;8.30;6.37;;;;;;;;;;4917875;28;20454;-51
2022/04/11 05:34:01;;;;;;;8.40;5.90;;;;;;;;;;4935512;28;20536;-50
2022/04/11 05:36:27;;;;;;;8.83;7.10;;;;;;;;;;4913161;28;20809;-50
2022/04/11 05:38:53;;;;;;;7.80;6.00;;;;;;;;;;4941097;28;20454;-52
2022/04/11 05:41:19;;;;;;;8.73;6.00;;;;;;;;;;4920252;28;20762;-52
2022/04/11 05:43:45;;;;;;;10.33;6.63;;;;;;;;;;4937976;28;20436;-52
2022/04/11 05:46:11;;;;;;;11.00;7.17;;;;;;;;;;4932825;28;20497;-52
2022/04/11 05:48:40;;;;;;;6.73;6.03;;;;;;;;;;4934925;28;20432;-52
2022/04/11 05:51:10;;;;;;;11.57;7.73;;;;;;;;;;4929356;28;20444;-51
2022/04/11 05:53:36;;;;;;;20.20;11.07;;;;;;;;;;4934822;28;21820;-51
2022/04/11 05:56:05;;;;;;;28.37;17.53;;;;;;;;;;4931524;28;20965;-51
2022/04/11 05:58:32;;;;;;;22.97;14.87;;;;;;;;;;4925611;28;20443;-51
2022/04/11 06:00:58;;;;;;;15.57;12.53;;;;;;;;;;4914290;28;20447;-53
2022/04/11 06:03:24;;;;;;;15.40;8.67;;;;;;;;;;4933035;28;20447;-53
2022/04/11 06:05:50;;;;;;;11.90;7.50;;;;;;;;;;4913613;28;20482;-53
2022/04/11 06:08:16;;;;;;;10.33;7.47;;;;;;;;;;4929022;28;20453;-53
2022/04/11 06:10:44;;;;;;;9.33;7.43;;;;;;;;;;4923667;28;20453;-51
2022/04/11 06:13:10;;;;;;;9.37;7.90;;;;;;;;;;4937810;28;20435;-52
2022/04/11 06:15:36;;;;;;;8.90;6.90;;;;;;;;;;4920691;28;20442;-53
2022/04/11 06:18:02;;;;;;;10.03;7.63;;;;;;;;;;4939194;28;20435;-52
2022/04/11 06:20:28;;;;;;;8.97;6.30;;;;;;;;;;4935137;28;20456;-53
2022/04/11 06:22:54;;;;;;;13.00;6.63;;;;;;;;;;4932617;28;21042;-52
2022/04/11 06:25:20;;;;;;;8.60;6.10;;;;;;;;;;4912327;28;20478;-52
2022/04/11 06:27:46;;;;;;;9.20;6.47;;;;;;;;;;4938987;28;20446;-53
2022/04/11 06:30:12;;;;;;;8.30;6.10;;;;;;;;;;4908805;28;20451;-53
2022/04/11 06:32:38;;;;;;;5.67;5.17;;;;;;;;;;4941145;28;20458;-53
2022/04/11 06:35:04;;;;;;;11.40;6.63;;;;;;;;;;4937054;28;20439;-53
2022/04/11 06:37:30;;;;;;;7.80;6.80;;;;;;;;;;4939119;28;21094;-52
2022/04/11 06:39:57;;;;;;;7.97;6.37;;;;;;;;;;4922140;28;20550;-52
2022/04/11 06:42:24;;;;;;;7.30;5.30;;;;;;;;;;4933912;28;20430;-53
2022/04/11 06:44:50;;;;;;;8.60;6.23;;;;;;;;;;4915008;28;20489;-53
2022/04/11 06:47:17;;;;;;;7.00;5.50;;;;;;;;;;4941690;28;20458;-53
2022/04/11 06:49:43;;;;;;;7.17;6.17;;;;;;;;;;4932733;28;20444;-52
2022/04/11 06:52:09;;;;;;;6.90;5.30;;;;;;;;;;4936193;28;20515;-53
2022/04/11 06:54:35;;;;;;;7.10;6.40;;;;;;;;;;4931340;28;20447;-52
2022/04/11 06:57:01;;;;;;;6.43;5.37;;;;;;;;;;4939845;28;20450;-52
2022/04/11 06:59:57;;;;;;;7.83;4.87;;;;;;;;;;4925839;28;20915;-53
2022/04/11 07:02:23;;;;;;;5.67;5.07;;;;;;;;;;4916366;28;20439;-52
2022/04/11 07:04:49;;;;;;;7.00;5.80;;;;;;;;;;4938379;28;20479;-53
2022/04/11 07:07:15;;;;;;;9.63;5.40;;;;;;;;;;4930362;28;20454;-53
2022/04/11 07:09:41;;;;;;;6.17;4.93;;;;;;;;;;4916544;28;20491;-53
2022/04/11 07:12:08;;;;;;;7.83;5.67;;;;;;;;;;4943856;28;20462;-54
2022/04/11 07:14:34;;;;;;;12.20;7.67;;;;;;;;;;4918112;28;21025;-51
2022/04/11 07:17:08;;;;;;;8.07;4.87;;;;;;;;;;4937495;28;20878;-54
2022/04/11 07:19:36;;;;;;;9.90;7.43;;;;;;;;;;4920195;28;21635;-53
2022/04/11 07:22:28;;;;;;;5.70;5.13;;;;;;;;;;4920499;28;20910;-52
2022/04/11 07:25:04;;;;;;;7.03;6.20;;;;;;;;;;4937292;28;20552;-52
2022/04/11 07:27:38;;;;;;;8.27;5.70;;;;;;;;;;4917694;28;20463;-53
2022/04/11 07:30:04;;;;;;;7.00;4.80;;;;;;;;;;4932853;28;20524;-53
2022/04/11 07:35:34;;;;;;;6.10;5.30;;;;;;;;;;4898792;28;20481;-53
2022/04/11 07:38:01;;;;;;;6.00;4.63;;;;;;;;;;4932950;28;21210;-53
2022/04/11 07:40:30;;;;;;;6.60;5.00;;;;;;;;;;4938202;28;20447;-52
2022/04/11 07:43:14;;;;;;;6.47;5.17;;;;;;;;;;4927776;28;21328;-53
2022/04/11 07:45:44;;;;;;;8.30;5.33;;;;;;;;;;4937432;28;20501;-52
2022/04/11 07:48:18;;;;;;;9.63;5.60;;;;;;;;;;4928026;28;20889;-55
2022/04/11 07:50:44;;;;;;;7.13;5.07;;;;;;;;;;4936413;28;20776;-53
2022/04/11 07:53:15;;;;;;;7.63;5.33;;;;;;;;;;4925749;28;20811;-52
2022/04/11 07:55:44;;;;;;;5.33;4.83;;;;;;;;;;4935513;28;20440;-52
2022/04/11 07:58:10;;;;;;;7.10;4.50;;;;;;;;;;4913719;28;20454;-52
2022/04/11 08:00:36;;;;;;;4.60;4.13;;;;;;;;;;4935912;28;20443;-52
2022/04/11 08:03:02;;;;;;;6.27;3.83;;;;;;;;;;4911379;28;20473;-51
2022/04/11 08:05:29;;;;;;;6.60;5.20;;;;;;;;;;4935332;28;20490;-52
2022/04/11 08:07:55;;;;;;;6.80;4.40;;;;;;;;;;4941757;28;20447;-52
2022/04/11 08:10:24;;;;;;;6.03;4.27;;;;;;;;;;4939282;28;20457;-51
2022/04/11 08:12:56;;;;;;;4.30;3.90;;;;;;;;;;4938861;29;20443;-51
2022/04/11 08:15:22;;;;;;;5.10;4.67;;;;;;;;;;4936961;28;20493;-51
2022/04/11 08:17:49;;;;;;;5.80;3.20;;;;;;;;;;4920753;28;20455;-51
2022/04/11 08:20:15;;;;;;;5.23;3.03;;;;;;;;;;4935191;28;21363;-52
2022/04/11 08:22:41;;;;;;;4.03;3.10;;;;;;;;;;4921899;28;20451;-54
2022/04/11 08:25:08;;;;;;;4.83;3.60;;;;;;;;;;4937874;28;20479;-52
2022/04/11 08:27:34;;;;;;;4.73;2.90;;;;;;;;;;4928208;28;20451;-51
2022/04/11 08:30:00;;;;;;;4.33;3.00;;;;;;;;;;4937864;28;20455;-52
2022/04/11 08:32:26;;;;;;;3.77;3.47;;;;;;;;;;4918965;28;21868;-51
2022/04/11 08:34:52;;;;;;;4.20;3.80;;;;;;;;;;4937638;28;20502;-52
2022/04/11 08:37:30;;;;;;;4.00;3.20;;;;;;;;;;4908343;28;20873;-52
2022/04/11 08:39:56;;;;;;;3.80;3.20;;;;;;;;;;4933911;28;20904;-52
2022/04/11 08:42:59;;;;;;;3.97;3.10;;;;;;;;;;4935053;28;20893;-52
2022/04/11 08:45:25;;;;;;;3.70;3.30;;;;;;;;;;4934193;28;20508;-51
2022/04/11 08:48:05;;;;;;;4.40;3.70;;;;;;;;;;4925579;28;20436;-52
2022/04/11 08:50:31;;;;;;;5.40;3.10;;;;;;;;;;4938027;28;20458;-52
2022/04/11 08:53:06;;;;;;;4.50;3.10;;;;;;;;;;4926358;28;20502;-51
2022/04/11 08:55:34;;;;;;;3.67;3.30;;;;;;;;;;4912381;28;20461;-54
2022/04/11 08:58:00;;;;;;;4.17;3.07;;;;;;;;;;4940467;28;20956;-51
2022/04/11 09:00:27;;;;;;;3.60;3.00;;;;;;;;;;4920665;28;20474;-52
2022/04/11 09:02:53;;;;;;;3.10;2.80;;;;;;;;;;4935312;28;20486;-53
2022/04/11 09:05:20;;;;;;;4.60;2.97;;;;;;;;;;4912618;28;20708;-53
2022/04/11 09:07:53;;;;;;;3.77;2.80;;;;;;;;;;4937586;28;20443;-52
2022/04/11 09:10:37;;;;;;;7.40;3.33;;;;;;;;;;4962035;28;20443;-54
2022/04/11 09:13:03;;;;;;;3.70;2.87;;;;;;;;;;4938461;28;20450;-52
2022/04/11 09:15:30;;;;;;;3.30;2.33;;;;;;;;;;4936152;28;20513;-53
2022/04/11 09:17:57;;;;;;;4.03;2.97;;;;;;;;;;4938109;28;20446;-53
2022/04/11 09:20:26;;;;;;;2.97;2.63;;;;;;;;;;4912521;28;20525;-53
2022/04/11 09:22:52;;;;;;;2.90;2.60;;;;;;;;;;4934219;28;20459;-54
2022/04/11 09:25:19;;;;;;;4.80;3.00;;;;;;;;;;4911005;28;20609;-51
2022/04/11 09:27:46;;;;;;;4.50;2.67;;;;;;;;;;4936870;28;20444;-52
2022/04/11 09:30:25;;;;;;;14.77;3.33;;;;;;;;;;4933529;28;21265;-52
2022/04/11 09:32:52;;;;;;;3.37;2.60;;;;;;;;;;4935694;28;20989;-53
2022/04/11 09:35:21;;;;;;;2.50;2.30;;;;;;;;;;4912851;28;20450;-53
2022/04/11 09:37:47;;;;;;;3.20;2.33;;;;;;;;;;4933829;28;20446;-53
2022/04/11 09:40:26;;;;;;;4.77;2.63;;;;;;;;;;4930608;28;20440;-54
2022/04/11 09:42:59;;;;;;;4.50;3.00;;;;;;;;;;4937353;28;20478;-51
2022/04/11 09:45:25;;;;;;;2.33;2.10;;;;;;;;;;4911975;28;20474;-53
2022/04/11 09:48:00;;;;;;;3.97;2.37;;;;;;;;;;4935899;28;21328;-52
2022/04/11 09:50:28;;;;;;;3.50;2.30;;;;;;;;;;4927975;28;20442;-50
2022/04/11 09:52:54;;;;;;;2.57;2.20;;;;;;;;;;4927996;28;21877;-51
2022/04/11 09:55:21;;;;;;;4.10;2.50;;;;;;;;;;4897337;28;21126;-52
2022/04/11 09:57:47;;;;;;;2.57;2.37;;;;;;;;;;4929439;28;20490;-52
2022/04/11 10:00:19;;;;;;;3.40;2.30;;;;;;;;;;4927716;28;20494;-52
2022/04/11 10:02:48;;;;;;;3.70;2.33;;;;;;;;;;4929341;28;20442;-53
2022/04/11 10:05:14;;;;;;;3.30;2.80;;;;;;;;;;4909643;28;20479;-53
2022/04/11 10:07:40;;;;;;;7.20;3.33;;;;;;;;;;4931151;28;20513;-52
2022/04/11 10:10:08;;;;;;;4.33;2.17;;;;;;;;;;4922623;28;20466;-53
2022/04/11 10:12:34;;;;;;;3.00;2.27;;;;;;;;;;4930574;28;20576;-51
2022/04/11 10:15:00;;;;;;;3.80;2.60;;;;;;;;;;4927273;28;20493;-51
2022/04/11 10:17:27;;;;;;;3.50;2.23;;;;;;;;;;4937543;28;20200;-52
2022/04/11 10:19:53;;;;;;;5.00;2.20;;;;;;;;;;4936150;28;20550;-52
2022/04/11 10:22:22;;;;;;;2.40;2.20;;;;;;;;;;4926038;28;20853;-52
2022/04/11 10:25:06;;;;;;;3.27;2.30;;;;;;;;;;4933090;28;20538;-54
2022/04/11 10:27:32;;;;;;;2.60;2.03;;;;;;;;;;4940671;28;20448;-51
2022/04/11 10:29:59;;;;;;;3.73;2.43;;;;;;;;;;4924644;28;20454;-51
2022/04/11 10:32:29;;;;;;;3.07;2.27;;;;;;;;;;4937518;29;20446;-52
2022/04/11 10:34:55;;;;;;;3.17;2.30;;;;;;;;;;4934730;28;20494;-53
2022/04/11 10:37:25;;;;;;;2.23;1.63;;;;;;;;;;4938498;28;20435;-52
2022/04/11 10:39:51;;;;;;;3.47;2.53;;;;;;;;;;4930452;28;20553;-51
2022/04/11 10:42:25;;;;;;;3.10;2.27;;;;;;;;;;4933625;28;20506;-53
2022/04/11 10:44:59;;;;;;;2.50;2.20;;;;;;;;;;4923070;28;20446;-51
2022/04/11 10:47:30;;;;;;;4.90;2.47;;;;;;;;;;4938155;28;20479;-53
2022/04/11 10:49:56;;;;;;;4.67;2.30;;;;;;;;;;4933657;28;20443;-53
2022/04/11 10:52:29;;;;;;;2.67;2.33;;;;;;;;;;4932141;28;21008;-51
2022/04/11 10:55:04;;;;;;;4.17;2.53;;;;;;;;;;4916747;28;20483;-52
2022/04/11 10:57:37;;;;;;;3.43;2.30;;;;;;;;;;4935807;28;20952;-52
2022/04/11 11:00:12;;;;;;;4.90;2.27;;;;;;;;;;4923124;28;20513;-52
2022/04/11 11:02:56;;;;;;;5.37;2.93;;;;;;;;;;4934007;28;20444;-53
2022/04/11 11:05:23;;;;;;;3.70;2.03;;;;;;;;;;4921381;28;20921;-53
2022/04/11 11:07:50;;;;;;;5.57;2.10;;;;;;;;;;4935270;28;20568;-52
2022/04/11 11:10:26;;;;;;;3.87;2.57;;;;;;;;;;4925140;28;20470;-52
2022/04/11 11:12:52;;;;;;;3.83;1.80;;;;;;;;;;4933030;28;20461;-53
2022/04/11 11:15:27;;;;;;;3.03;2.53;;;;;;;;;;4915050;28;20486;-53
2022/04/11 11:17:57;;;;;;;2.23;2.00;;;;;;;;;;4935036;28;21130;-55
2022/04/11 11:20:23;;;;;;;4.80;2.50;;;;;;;;;;4902644;28;21119;-53
2022/04/11 11:23:16;;;;;;;3.20;2.27;;;;;;;;;;4934822;28;20494;-52
2022/04/11 11:25:42;;;;;;;3.30;2.23;;;;;;;;;;4911270;28;20572;-54
2022/04/11 11:28:08;;;;;;;3.77;2.13;;;;;;;;;;4931005;28;20526;-53
2022/04/11 11:30:34;;;;;;;2.93;2.17;;;;;;;;;;4914373;28;20455;-53
2022/04/11 11:33:01;;;;;;;2.50;2.30;;;;;;;;;;4933171;28;20211;-53
2022/04/11 11:35:28;;;;;;;3.00;2.53;;;;;;;;;;4932981;28;22152;-52
2022/04/11 11:38:02;;;;;;;2.30;2.10;;;;;;;;;;4934342;28;20474;-53
2022/04/11 11:40:29;;;;;;;3.70;2.87;;;;;;;;;;4917067;28;20450;-52
2022/04/11 11:42:56;;;;;;;4.93;3.17;;;;;;;;;;4935082;28;20450;-54
2022/04/11 11:45:29;;;;;;;3.43;2.50;;;;;;;;;;4918752;28;21970;-53
2022/04/11 11:47:55;;;;;;;5.03;3.03;;;;;;;;;;4934879;28;20905;-53
2022/04/11 11:50:21;;;;;;;5.20;3.30;;;;;;;;;;4930639;28;20463;-53
2022/04/11 11:52:57;;;;;;;3.00;2.70;;;;;;;;;;4932876;28;20455;-53
2022/04/11 11:55:23;;;;;;;3.17;2.20;;;;;;;;;;4905757;28;20502;-53
2022/04/11 11:58:02;;;;;;;3.90;3.17;;;;;;;;;;4939267;28;20435;-53
2022/04/11 12:00:33;;;;;;;3.47;2.47;;;;;;;;;;4912321;28;20857;-54
2022/04/11 12:05:43;;;;;;;3.50;2.23;;;;;;;;;;4918321;28;20513;-52
2022/04/11 12:08:13;;;;;;;6.37;2.73;;;;;;;;;;4928533;28;20455;-52
2022/04/11 12:10:39;;;;;;;4.10;2.20;;;;;;;;;;4937485;28;20634;-51
2022/04/11 12:13:29;;;;;;;3.90;2.50;;;;;;;;;;4925387;28;20450;-53
2022/04/11 12:16:07;;;;;;;3.97;2.67;;;;;;;;;;4914187;28;20490;-53
2022/04/11 12:21:39;;;;;;;6.63;2.93;;;;;;;;;;4912820;28;20458;-51
2022/04/11 12:24:06;;;;;;;4.50;2.97;;;;;;;;;;4932653;28;21444;-51
2022/04/11 12:26:33;;;;;;;3.80;3.00;;;;;;;;;;4909380;28;21061;-52
2022/04/11 12:29:03;;;;;;;3.70;2.77;;;;;;;;;;4924655;28;20465;-52
2022/04/11 12:31:49;;;;;;;3.13;2.40;;;;;;;;;;4923782;28;20578;-52
2022/04/11 12:34:17;;;;;;;3.50;2.93;;;;;;;;;;4934475;28;20487;-52
2022/04/11 12:37:01;;;;;;;3.80;2.77;;;;;;;;;;4914331;28;20447;-52
2022/04/11 12:39:27;;;;;;;4.63;3.03;;;;;;;;;;4936527;28;20451;-51
2022/04/11 12:42:35;;;;;;;2.90;2.60;;;;;;;;;;4939947;28;20518;-54
2022/04/11 12:45:02;;;;;;;3.67;3.00;;;;;;;;;;4911857;29;20192;-53
2022/04/11 12:47:28;;;;;;;3.47;2.70;;;;;;;;;;4914376;28;20454;-53
2022/04/11 12:49:54;;;;;;;3.80;3.07;;;;;;;;;;4940284;28;20443;-53
2022/04/11 12:52:21;;;;;;;4.50;3.17;;;;;;;;;;4924853;28;20458;-54
2022/04/11 12:54:48;;;;;;;3.97;2.73;;;;;;;;;;4937301;28;20595;-51
2022/04/11 12:57:26;;;;;;;4.90;2.80;;;;;;;;;;4924924;28;20446;-53
2022/04/11 12:59:53;;;;;;;3.60;3.27;;;;;;;;;;4935027;28;20443;-51
2022/04/11 13:02:20;;;;;;;3.40;2.60;;;;;;;;;;4931589;28;20439;-55
2022/04/11 13:04:53;;;;;;;4.77;3.40;;;;;;;;;;4943486;28;20439;-52
2022/04/11 13:07:20;;;;;;;3.57;2.63;;;;;;;;;;4921916;28;20455;-55
2022/04/11 13:09:47;;;;;;;3.70;2.27;;;;;;;;;;4939502;28;20474;-53
2022/04/11 13:12:14;;;;;;;4.40;3.73;;;;;;;;;;4912104;28;20552;-54
2022/04/11 13:14:41;;;;;;;3.43;3.13;;;;;;;;;;4937085;28;20529;-53
2022/04/11 13:19:52;;;;;;;4.13;3.23;;;;;;;;;;4942938;29;20450;-53
2022/04/11 13:22:18;;;;;;;5.27;3.63;;;;;;;;;;4936797;28;20451;-53
2022/04/11 13:24:44;;;;;;;7.00;3.10;;;;;;;;;;4934603;28;20745;-54
2022/04/11 13:27:36;;;;;;;4.27;3.03;;;;;;;;;;4939514;28;20707;-54
2022/04/11 13:30:02;;;;;;;3.40;3.10;;;;;;;;;;4940052;28;20447;-52
2022/04/11 13:32:28;;;;;;;3.80;3.23;;;;;;;;;;4918638;28;21007;-52
2022/04/11 13:34:54;;;;;;;4.70;3.17;;;;;;;;;;4938786;28;20544;-54
2022/04/11 13:37:20;;;;;;;5.57;2.97;;;;;;;;;;4935307;28;20442;-53
2022/04/11 13:39:49;;;;;;;3.57;2.90;;;;;;;;;;4936600;28;20462;-54
2022/04/11 13:42:15;;;;;;;4.60;3.57;;;;;;;;;;4944901;28;21073;-53
2022/04/11 13:44:41;;;;;;;3.50;3.20;;;;;;;;;;4884663;28;20466;-54
2022/04/11 13:47:07;;;;;;;4.00;2.80;;;;;;;;;;4931194;28;21331;-53
2022/04/11 13:49:34;;;;;;;4.60;3.50;;;;;;;;;;4928588;28;20541;-53
2022/04/11 13:52:00;;;;;;;4.10;3.37;;;;;;;;;;4930301;28;21190;-54
2022/04/11 13:55:01;;;;;;;5.40;3.67;;;;;;;;;;4930184;28;21192;-53
2022/04/11 13:57:32;;;;;;;4.10;3.37;;;;;;;;;;4926535;28;20566;-52
2022/04/11 14:03:09;;;;;;;4.23;3.80;;;;;;;;;;4917065;28;20454;-53
2022/04/11 14:05:35;;;;;;;6.13;3.93;;;;;;;;;;4910613;28;20478;-51
2022/04/11 14:08:01;;;;;;;4.17;3.17;;;;;;;;;;4933557;28;20447;-53
2022/04/11 14:10:27;;;;;;;4.07;3.43;;;;;;;;;;4934022;28;20594;-52
2022/04/11 14:12:53;;;;;;;4.13;3.50;;;;;;;;;;4934925;28;21377;-53
2022/04/11 14:15:19;;;;;;;6.83;3.03;;;;;;;;;;4911543;28;20557;-52
2022/04/11 14:17:45;;;;;;;5.73;3.30;;;;;;;;;;4929208;28;20814;-53
2022/04/11 14:20:11;;;;;;;6.53;3.30;;;;;;;;;;4918995;28;20443;-52
2022/04/11 14:22:37;;;;;;;3.37;2.90;;;;;;;;;;4932067;28;20542;-51
2022/04/11 14:25:04;;;;;;;4.13;3.43;;;;;;;;;;4926783;28;20465;-53
2022/04/11 14:27:30;;;;;;;4.37;2.97;;;;;;;;;;4938066;28;20489;-52
2022/04/11 14:29:56;;;;;;;2.93;2.63;;;;;;;;;;4913206;28;20547;-54
2022/04/11 14:32:22;;;;;;;3.23;2.60;;;;;;;;;;4935125;28;20447;-54
2022/04/11 14:34:48;;;;;;;3.10;2.60;;;;;;;;;;4911041;28;20939;-53
2022/04/11 14:37:14;;;;;;;5.83;3.43;;;;;;;;;;4936042;28;20454;-52
2022/04/11 14:39:40;;;;;;;3.43;3.13;;;;;;;;;;4918494;28;20726;-52
2022/04/11 14:42:06;;;;;;;3.63;3.03;;;;;;;;;;4934882;28;20183;-54
2022/04/11 14:44:32;;;;;;;4.37;2.97;;;;;;;;;;4932243;28;20497;-53
2022/04/11 14:46:58;;;;;;;3.67;3.03;;;;;;;;;;4933965;28;20466;-52
2022/04/11 14:49:24;;;;;;;3.50;3.00;;;;;;;;;;4916045;28;20195;-53
2022/04/11 14:51:50;;;;;;;4.10;3.17;;;;;;;;;;4931840;28;20213;-53
2022/04/11 14:54:16;;;;;;;4.90;2.63;;;;;;;;;;4930247;28;20207;-52
2022/04/11 14:56:42;;;;;;;5.50;2.83;;;;;;;;;;4938711;28;20455;-53
2022/04/11 14:59:08;;;;;;;5.17;3.50;;;;;;;;;;4917293;28;20892;-53
2022/04/11 15:01:34;;;;;;;3.53;3.00;;;;;;;;;;4933685;28;20443;-52
2022/04/11 15:04:00;;;;;;;4.77;2.83;;;;;;;;;;4930402;28;20486;-53
2022/04/11 15:06:26;;;;;;;3.60;2.63;;;;;;;;;;4922883;28;21392;-52
2022/04/11 15:11:56;;;;;;;5.70;3.00;;;;;;;;;;4920168;28;20469;-53